Pagrindinis puslapis
METAR-TAF:

METAR-TAF

Oro uostai :

Abu Dabis, Jungtiniai Arabų Emyratai

platuma: 24-26N, ilguma: 054-28E, Aukštis: 5 m

Dabartinis oras

Ataskaita buvo paskelbta 56 minutes, ne 04:00 UTC
Ramus vėjas
Temperatūra 24°C
Drėgmė 36%
Slėgis 1016 hPa
Matomumas 10 km arba daugiau
nėra debesų žemiau 1500 m ir nėra kamuolinių lietaus debesų

METAR: OMAD 130400Z 00000KT CAVOK 24/08 Q1016 NOSIG

Laikas: 08:56 (04:56 UTC)

Prognozė

Ataskaita buvo paskelbta 5 valandos ir 56 minutes, ne 23:00 UTC
Prognozė galioja nuo 13 metu 00 UTC su 14 metu 06 UTC
Vėjas 5 kt iš Rytų
Matomumas: 8000 m
Tapsmas
nuo 13 metu 08 UTC su 13 metu 10 UTC
Vėjas 10 kt iš Šiaurės
Tapsmas
nuo 13 metu 16 UTC su 13 metu 18 UTC
Vėjas 5 kt iš Rytų/Šiaurės Rytų
Tapsmas
nuo 14 metu 01 UTC su 14 metu 03 UTC
Vėjas 5 kt iš Rytų/Pietryčių

TAF: OMAD 122300Z 1300/1406 09005KT 8000 NSC BECMG 1308/1310 36010KT BECMG 1316/1318 06005KT BECMG 1401/1403 12005KT

Orai ataskaitas ir orų prognozės (METAR, TAF).

turimą stotys yra geltonos ir raudonos taškus žemėlapyje.

Perkelti pele per norėdami pamatyti stoties vardą.

Tada spustelėkite, norėdami matyti oro stebėjimo ir prognozės.

Norėdami pakeisti žemėlapį: spustelėkite ant žalios mygtukų su juodo kryžiaus žemyn,; žalią mygtuką su brūkšneliu, jei norite nutolinti; arba žalių rodyklių gretimoms žemėlapius.


METAR-TAF: